sensor_id;sensor_type;location;lat;lon;timestamp;pressure;altitude;pressure_sealevel;temperature;humidity
6395;BME280;3230;42.588;23.358;2023-03-14T08:06:09;90913.69;;;23.35;19.67
6395;BME280;3230;42.588;23.358;2023-03-14T08:08:34;90909.84;;;23.55;19.30
6395;BME280;3230;42.588;23.358;2023-03-14T08:11:05;90912.44;;;23.71;19.89
6395;BME280;3230;42.588;23.358;2023-03-14T08:13:31;90913.19;;;23.95;19.19
6395;BME280;3230;42.588;23.358;2023-03-14T08:15:56;90905.47;;;23.67;20.79
6395;BME280;3230;42.588;23.358;2023-03-14T08:18:22;90914.63;;;23.66;19.95
6395;BME280;3230;42.588;23.358;2023-03-14T08:20:47;90909.16;;;23.35;19.96
6395;BME280;3230;42.588;23.358;2023-03-14T08:23:13;90913.19;;;22.86;21.01
6395;BME280;3230;42.588;23.358;2023-03-14T08:25:38;90905.94;;;22.67;20.92
6395;BME280;3230;42.588;23.358;2023-03-14T08:28:04;90916.84;;;23.17;20.75
6395;BME280;3230;42.588;23.358;2023-03-14T08:30:30;90917.50;;;22.55;20.94
6395;BME280;3230;42.588;23.358;2023-03-14T08:32:58;90918.25;;;22.72;21.26
6395;BME280;3230;42.588;23.358;2023-03-14T08:35:24;90914.59;;;22.80;20.73
6395;BME280;3230;42.588;23.358;2023-03-14T08:37:50;90906.16;;;22.07;21.64
6395;BME280;3230;42.588;23.358;2023-03-14T08:40:17;90901.00;;;22.49;21.75
6395;BME280;3230;42.588;23.358;2023-03-14T08:42:43;90901.09;;;21.85;21.89
6395;BME280;3230;42.588;23.358;2023-03-14T08:45:11;90892.13;;;21.14;22.46
6395;BME280;3230;42.588;23.358;2023-03-14T08:47:37;90888.44;;;21.34;22.47
6395;BME280;3230;42.588;23.358;2023-03-14T08:50:04;90889.72;;;21.24;23.44
6395;BME280;3230;42.588;23.358;2023-03-14T08:52:30;90887.22;;;21.16;21.87
6395;BME280;3230;42.588;23.358;2023-03-14T08:54:56;90892.13;;;21.30;22.62
6395;BME280;3230;42.588;23.358;2023-03-14T08:57:22;90884.00;;;20.94;21.68
6395;BME280;3230;42.588;23.358;2023-03-14T08:59:55;90868.75;;;20.50;23.09
6395;BME280;3230;42.588;23.358;2023-03-14T09:02:22;90873.41;;;19.26;23.41
6395;BME280;3230;42.588;23.358;2023-03-14T09:04:50;90880.50;;;17.82;26.20
6395;BME280;3230;42.588;23.358;2023-03-14T09:07:15;90856.38;;;15.89;28.18
6395;BME280;3230;42.588;23.358;2023-03-14T09:09:41;90874.00;;;13.54;31.66
6395;BME280;3230;42.588;23.358;2023-03-14T09:12:06;90857.44;;;12.04;34.20
6395;BME280;3230;42.588;23.358;2023-03-14T09:14:32;90856.63;;;12.03;34.52
6395;BME280;3230;42.588;23.358;2023-03-14T09:16:57;90850.91;;;12.34;35.04
6395;BME280;3230;42.588;23.358;2023-03-14T09:19:23;90854.03;;;12.36;35.21
6395;BME280;3230;42.588;23.358;2023-03-14T09:21:48;90844.75;;;12.25;34.47
6395;BME280;3230;42.588;23.358;2023-03-14T09:24:14;90835.19;;;11.96;35.43
6395;BME280;3230;42.588;23.358;2023-03-14T09:26:40;90831.25;;;11.79;35.66
6395;BME280;3230;42.588;23.358;2023-03-14T09:29:05;90824.81;;;11.09;37.42
6395;BME280;3230;42.588;23.358;2023-03-14T09:31:30;90819.41;;;11.44;37.27
6395;BME280;3230;42.588;23.358;2023-03-14T09:33:56;90813.78;;;11.50;37.93
6395;BME280;3230;42.588;23.358;2023-03-14T09:36:22;90811.25;;;11.64;38.36
6395;BME280;3230;42.588;23.358;2023-03-14T09:38:47;90805.19;;;11.83;37.36
6395;BME280;3230;42.588;23.358;2023-03-14T09:41:18;90811.28;;;11.78;36.11
6395;BME280;3230;42.588;23.358;2023-03-14T09:43:46;90813.44;;;11.57;36.98
6395;BME280;3230;42.588;23.358;2023-03-14T09:46:16;90801.19;;;11.72;36.84
6395;BME280;3230;42.588;23.358;2023-03-14T09:48:42;90793.53;;;11.89;37.27
6395;BME280;3230;42.588;23.358;2023-03-14T09:51:17;90788.72;;;11.77;36.43
6395;BME280;3230;42.588;23.358;2023-03-14T09:53:45;90780.84;;;11.77;38.32
6395;BME280;3230;42.588;23.358;2023-03-14T09:56:20;90787.50;;;12.08;37.60
6395;BME280;3230;42.588;23.358;2023-03-14T09:58:50;90782.75;;;11.91;37.38
6395;BME280;3230;42.588;23.358;2023-03-14T10:01:20;90778.31;;;11.72;37.96
6395;BME280;3230;42.588;23.358;2023-03-14T10:03:47;90778.28;;;11.91;37.50
6395;BME280;3230;42.588;23.358;2023-03-14T10:06:13;90771.63;;;11.80;37.65
6395;BME280;3230;42.588;23.358;2023-03-14T10:08:40;90774.97;;;11.86;37.17
6395;BME280;3230;42.588;23.358;2023-03-14T10:11:12;90777.38;;;12.01;37.30
6395;BME280;3230;42.588;23.358;2023-03-14T10:16:33;90769.53;;;12.15;37.82
6395;BME280;3230;42.588;23.358;2023-03-14T10:19:09;90758.59;;;12.08;37.17
6395;BME280;3230;42.588;23.358;2023-03-14T10:21:37;90758.25;;;11.95;36.84
6395;BME280;3230;42.588;23.358;2023-03-14T10:24:31;90759.09;;;12.10;37.86
6395;BME280;3230;42.588;23.358;2023-03-14T10:27:05;90750.06;;;12.02;37.80
6395;BME280;3230;42.588;23.358;2023-03-14T10:29:51;90745.22;;;12.09;37.71
6395;BME280;3230;42.588;23.358;2023-03-14T10:32:19;90741.69;;;12.00;36.90
6395;BME280;3230;42.588;23.358;2023-03-14T10:35:04;90719.75;;;11.58;38.35
6395;BME280;3230;42.588;23.358;2023-03-14T10:37:30;90721.84;;;12.08;37.97
6395;BME280;3230;42.588;23.358;2023-03-14T10:39:58;90715.00;;;11.93;37.76
6395;BME280;3230;42.588;23.358;2023-03-14T10:42:32;90719.06;;;12.18;38.82
6395;BME280;3230;42.588;23.358;2023-03-14T10:45:21;90718.09;;;12.28;37.66
6395;BME280;3230;42.588;23.358;2023-03-14T10:47:49;90706.59;;;12.52;37.21
6395;BME280;3230;42.588;23.358;2023-03-14T10:50:29;90706.50;;;12.57;36.50
6395;BME280;3230;42.588;23.358;2023-03-14T10:52:56;90706.88;;;12.64;36.59
6395;BME280;3230;42.588;23.358;2023-03-14T10:55:24;90695.22;;;12.56;38.14
6395;BME280;3230;42.588;23.358;2023-03-14T10:57:50;90680.81;;;12.40;38.90
6395;BME280;3230;42.588;23.358;2023-03-14T11:00:21;90683.81;;;12.33;38.43
6395;BME280;3230;42.588;23.358;2023-03-14T11:11:29;90665.00;;;12.82;38.23
6395;BME280;3230;42.588;23.358;2023-03-14T11:14:33;90653.06;;;12.98;37.97
6395;BME280;3230;42.588;23.358;2023-03-14T11:17:09;90644.53;;;12.78;36.84
6395;BME280;3230;42.588;23.358;2023-03-14T11:22:39;90634.94;;;12.96;38.63
6395;BME280;3230;42.588;23.358;2023-03-14T11:27:44;90627.31;;;12.86;36.48
6395;BME280;3230;42.588;23.358;2023-03-14T11:30:34;90620.06;;;12.92;38.50
6395;BME280;3230;42.588;23.358;2023-03-14T11:33:05;90610.16;;;12.89;37.53
6395;BME280;3230;42.588;23.358;2023-03-14T11:35:41;90600.81;;;12.83;37.01
6395;BME280;3230;42.588;23.358;2023-03-14T11:38:15;90601.81;;;13.09;36.50
6395;BME280;3230;42.588;23.358;2023-03-14T11:40:43;90605.00;;;13.06;37.57
6395;BME280;3230;42.588;23.358;2023-03-14T11:43:17;90595.25;;;13.43;36.30
6395;BME280;3230;42.588;23.358;2023-03-14T11:45:47;90591.69;;;13.25;36.18
6395;BME280;3230;42.588;23.358;2023-03-14T11:50:57;90586.72;;;13.47;36.26
6395;BME280;3230;42.588;23.358;2023-03-14T11:53:45;90580.84;;;13.41;36.80
6395;BME280;3230;42.588;23.358;2023-03-14T11:56:31;90582.25;;;13.47;35.64
6395;BME280;3230;42.588;23.358;2023-03-14T11:59:40;90586.28;;;13.45;35.66
6395;BME280;3230;42.588;23.358;2023-03-14T12:02:36;90567.59;;;12.87;37.18
6395;BME280;3230;42.588;23.358;2023-03-14T12:10:40;90557.88;;;13.64;35.16
6395;BME280;3230;42.588;23.358;2023-03-14T12:13:12;90551.22;;;13.67;34.61
6395;BME280;3230;42.588;23.358;2023-03-14T12:15:40;90556.91;;;13.60;35.17
6395;BME280;3230;42.588;23.358;2023-03-14T12:18:28;90547.38;;;13.41;35.05
6395;BME280;3230;42.588;23.358;2023-03-14T12:20:57;90541.72;;;13.57;35.01
6395;BME280;3230;42.588;23.358;2023-03-14T12:23:24;90534.47;;;13.31;36.10
6395;BME280;3230;42.588;23.358;2023-03-14T12:26:43;90530.56;;;13.51;35.23
6395;BME280;3230;42.588;23.358;2023-03-14T12:29:11;90523.31;;;13.57;35.01
6395;BME280;3230;42.588;23.358;2023-03-14T12:31:47;90521.34;;;13.71;34.73
6395;BME280;3230;42.588;23.358;2023-03-14T12:45:23;90505.34;;;14.17;33.75
6395;BME280;3230;42.588;23.358;2023-03-14T12:50:28;90511.22;;;14.14;33.68
6395;BME280;3230;42.588;23.358;2023-03-14T12:55:52;90506.41;;;13.98;33.55
6395;BME280;3230;42.588;23.358;2023-03-14T12:58:31;90496.88;;;13.80;34.20
6395;BME280;3230;42.588;23.358;2023-03-14T13:01:04;90489.63;;;13.85;33.73
6395;BME280;3230;42.588;23.358;2023-03-14T13:03:57;90478.00;;;13.78;34.89
6395;BME280;3230;42.588;23.358;2023-03-14T13:06:46;90483.31;;;14.04;33.94
6395;BME280;3230;42.588;23.358;2023-03-14T13:11:55;90473.44;;;14.36;34.19
6395;BME280;3230;42.588;23.358;2023-03-14T13:14:22;90465.38;;;14.50;32.80
6395;BME280;3230;42.588;23.358;2023-03-14T13:16:48;90463.34;;;14.64;33.02
6395;BME280;3230;42.588;23.358;2023-03-14T13:19:20;90462.72;;;14.50;32.49
6395;BME280;3230;42.588;23.358;2023-03-14T13:21:50;90455.91;;;14.58;33.21
6395;BME280;3230;42.588;23.358;2023-03-14T13:24:26;90447.69;;;14.42;33.36
6395;BME280;3230;42.588;23.358;2023-03-14T13:26:53;90446.16;;;14.58;32.46
6395;BME280;3230;42.588;23.358;2023-03-14T13:29:23;90445.19;;;14.89;31.62
6395;BME280;3230;42.588;23.358;2023-03-14T13:31:54;90437.41;;;14.93;31.67
6395;BME280;3230;42.588;23.358;2023-03-14T13:34:25;90431.53;;;14.96;32.90
6395;BME280;3230;42.588;23.358;2023-03-14T13:36:54;90421.19;;;14.55;32.29
6395;BME280;3230;42.588;23.358;2023-03-14T13:39:25;90422.38;;;14.93;32.00
6395;BME280;3230;42.588;23.358;2023-03-14T13:41:52;90412.75;;;14.97;31.91
6395;BME280;3230;42.588;23.358;2023-03-14T13:44:32;90400.22;;;14.77;31.93
6395;BME280;3230;42.588;23.358;2023-03-14T13:47:05;90393.06;;;14.77;32.29
6395;BME280;3230;42.588;23.358;2023-03-14T13:49:32;90395.88;;;14.72;31.98
6395;BME280;3230;42.588;23.358;2023-03-14T13:52:01;90398.03;;;14.61;31.98
6395;BME280;3230;42.588;23.358;2023-03-14T13:54:27;90394.03;;;14.73;31.65
6395;BME280;3230;42.588;23.358;2023-03-14T13:57:19;90391.81;;;14.92;31.94
6395;BME280;3230;42.588;23.358;2023-03-14T14:02:26;90379.41;;;14.84;31.79
6395;BME280;3230;42.588;23.358;2023-03-14T14:04:53;90366.19;;;14.93;31.68
6395;BME280;3230;42.588;23.358;2023-03-14T14:07:18;90356.16;;;14.86;32.95
6395;BME280;3230;42.588;23.358;2023-03-14T14:09:47;90347.16;;;14.87;31.43
6395;BME280;3230;42.588;23.358;2023-03-14T14:12:27;90350.09;;;14.85;33.51
6395;BME280;3230;42.588;23.358;2023-03-14T14:14:58;90351.38;;;14.62;31.63
6395;BME280;3230;42.588;23.358;2023-03-14T14:17:31;90350.59;;;14.79;31.40
6395;BME280;3230;42.588;23.358;2023-03-14T14:19:58;90333.13;;;14.95;31.40
6395;BME280;3230;42.588;23.358;2023-03-14T14:22:25;90332.22;;;14.91;31.15
6395;BME280;3230;42.588;23.358;2023-03-14T14:24:51;90329.97;;;14.63;31.81
6395;BME280;3230;42.588;23.358;2023-03-14T14:27:27;90321.28;;;14.54;29.96
6395;BME280;3230;42.588;23.358;2023-03-14T14:30:03;90322.44;;;14.35;29.86
6395;BME280;3230;42.588;23.358;2023-03-14T14:32:39;90324.44;;;14.47;29.35
6395;BME280;3230;42.588;23.358;2023-03-14T14:35:06;90320.88;;;14.34;29.33
6395;BME280;3230;42.588;23.358;2023-03-14T14:37:42;90316.25;;;14.14;30.29
6395;BME280;3230;42.588;23.358;2023-03-14T14:40:13;90306.97;;;14.07;30.41
6395;BME280;3230;42.588;23.358;2023-03-14T14:42:41;90298.63;;;14.05;30.37
6395;BME280;3230;42.588;23.358;2023-03-14T14:45:14;90305.75;;;13.96;31.27
6395;BME280;3230;42.588;23.358;2023-03-14T14:48:11;90304.53;;;13.85;30.38
6395;BME280;3230;42.588;23.358;2023-03-14T14:50:48;90298.63;;;13.97;30.45
6395;BME280;3230;42.588;23.358;2023-03-14T14:55:43;90293.38;;;13.70;31.18
6395;BME280;3230;42.588;23.358;2023-03-14T15:00:54;90292.00;;;13.73;31.10
6395;BME280;3230;42.588;23.358;2023-03-14T15:03:20;90285.78;;;13.69;31.25
6395;BME280;3230;42.588;23.358;2023-03-14T15:05:46;90279.59;;;13.65;30.86
6395;BME280;3230;42.588;23.358;2023-03-14T15:08:11;90278.38;;;13.53;30.20
6395;BME280;3230;42.588;23.358;2023-03-14T15:10:37;90274.50;;;13.51;31.19
6395;BME280;3230;42.588;23.358;2023-03-14T15:13:03;90279.59;;;13.47;30.50
6395;BME280;3230;42.588;23.358;2023-03-14T15:15:28;90265.47;;;13.34;30.86
6395;BME280;3230;42.588;23.358;2023-03-14T15:17:54;90271.34;;;13.31;30.12
6395;BME280;3230;42.588;23.358;2023-03-14T15:20:19;90264.53;;;13.21;30.50
6395;BME280;3230;42.588;23.358;2023-03-14T15:22:48;90260.03;;;13.04;31.73
6395;BME280;3230;42.588;23.358;2023-03-14T15:25:14;90256.75;;;12.99;30.54
6395;BME280;3230;42.588;23.358;2023-03-14T15:27:40;90241.88;;;12.85;31.10
6395;BME280;3230;42.588;23.358;2023-03-14T15:30:12;90252.06;;;12.69;31.78
6395;BME280;3230;42.588;23.358;2023-03-14T15:32:38;90252.28;;;12.50;31.45
6395;BME280;3230;42.588;23.358;2023-03-14T15:35:04;90243.34;;;12.51;32.30
6395;BME280;3230;42.588;23.358;2023-03-14T15:37:30;90248.22;;;12.35;32.40
6395;BME280;3230;42.588;23.358;2023-03-14T15:39:56;90246.53;;;12.39;32.45
6395;BME280;3230;42.588;23.358;2023-03-14T15:42:23;90238.47;;;12.36;32.05
6395;BME280;3230;42.588;23.358;2023-03-14T15:44:48;90238.22;;;12.06;33.37
6395;BME280;3230;42.588;23.358;2023-03-14T15:47:14;90229.06;;;12.03;33.55
6395;BME280;3230;42.588;23.358;2023-03-14T15:49:39;90228.63;;;12.10;33.36
6395;BME280;3230;42.588;23.358;2023-03-14T15:52:05;90227.03;;;12.00;33.24
6395;BME280;3230;42.588;23.358;2023-03-14T15:54:33;90218.75;;;11.84;33.60
6395;BME280;3230;42.588;23.358;2023-03-14T15:56:58;90233.25;;;11.59;33.78
6395;BME280;3230;42.588;23.358;2023-03-14T15:59:24;90224.44;;;11.32;34.17
6395;BME280;3230;42.588;23.358;2023-03-14T16:01:50;90225.94;;;11.10;36.17
6395;BME280;3230;42.588;23.358;2023-03-14T16:04:16;90231.34;;;11.28;38.71
6395;BME280;3230;42.588;23.358;2023-03-14T16:06:42;90222.81;;;10.85;40.94
6395;BME280;3230;42.588;23.358;2023-03-14T16:09:12;90225.75;;;10.84;41.93
6395;BME280;3230;42.588;23.358;2023-03-14T16:11:38;90218.19;;;10.54;39.49
6395;BME280;3230;42.588;23.358;2023-03-14T16:14:03;90220.03;;;10.54;37.61
6395;BME280;3230;42.588;23.358;2023-03-14T16:16:29;90215.88;;;10.39;37.50
6395;BME280;3230;42.588;23.358;2023-03-14T16:18:54;90219.66;;;10.33;37.39
6395;BME280;3230;42.588;23.358;2023-03-14T16:21:20;90214.50;;;10.14;37.10
6395;BME280;3230;42.588;23.358;2023-03-14T16:23:46;90210.59;;;9.97;38.13
6395;BME280;3230;42.588;23.358;2023-03-14T16:26:13;90223.41;;;9.99;38.33
6395;BME280;3230;42.588;23.358;2023-03-14T16:28:40;90223.34;;;9.71;40.30
6395;BME280;3230;42.588;23.358;2023-03-14T16:31:08;90215.00;;;9.55;42.02
6395;BME280;3230;42.588;23.358;2023-03-14T16:33:36;90225.91;;;9.57;42.57
6395;BME280;3230;42.588;23.358;2023-03-14T16:36:04;90225.78;;;9.34;45.68
6395;BME280;3230;42.588;23.358;2023-03-14T16:38:34;90225.69;;;9.20;41.90
6395;BME280;3230;42.588;23.358;2023-03-14T16:43:28;90224.72;;;9.16;42.28
6395;BME280;3230;42.588;23.358;2023-03-14T16:45:56;90229.25;;;8.91;42.97
6395;BME280;3230;42.588;23.358;2023-03-14T16:48:22;90226.50;;;9.02;42.82
6395;BME280;3230;42.588;23.358;2023-03-14T16:50:49;90230.59;;;8.89;44.88
6395;BME280;3230;42.588;23.358;2023-03-14T16:53:15;90226.00;;;8.80;43.79
6395;BME280;3230;42.588;23.358;2023-03-14T16:55:41;90222.19;;;8.73;45.17
6395;BME280;3230;42.588;23.358;2023-03-14T16:58:08;90225.16;;;8.66;48.35
6395;BME280;3230;42.588;23.358;2023-03-14T17:00:33;90223.72;;;8.55;49.37
6395;BME280;3230;42.588;23.358;2023-03-14T17:02:59;90221.09;;;8.30;49.20
6395;BME280;3230;42.588;23.358;2023-03-14T17:05:24;90229.88;;;8.40;49.11
6395;BME280;3230;42.588;23.358;2023-03-14T17:07:50;90223.66;;;8.36;48.53
6395;BME280;3230;42.588;23.358;2023-03-14T17:10:16;90226.75;;;8.38;49.51
6395;BME280;3230;42.588;23.358;2023-03-14T17:12:43;90221.38;;;8.05;53.37
6395;BME280;3230;42.588;23.358;2023-03-14T17:15:08;90221.94;;;7.77;55.13
6395;BME280;3230;42.588;23.358;2023-03-14T17:17:34;90218.50;;;7.82;55.85
6395;BME280;3230;42.588;23.358;2023-03-14T17:19:59;90227.13;;;8.07;48.92
6395;BME280;3230;42.588;23.358;2023-03-14T17:22:25;90224.63;;;7.67;49.01
6395;BME280;3230;42.588;23.358;2023-03-14T17:24:50;90221.19;;;7.72;44.50
6395;BME280;3230;42.588;23.358;2023-03-14T17:27:16;90226.78;;;7.60;46.93
6395;BME280;3230;42.588;23.358;2023-03-14T17:29:45;90231.03;;;7.50;48.74
6395;BME280;3230;42.588;23.358;2023-03-14T17:32:11;90225.88;;;7.45;45.12
6395;BME280;3230;42.588;23.358;2023-03-14T17:34:36;90226.38;;;7.47;43.65
6395;BME280;3230;42.588;23.358;2023-03-14T17:37:02;90218.31;;;7.44;43.00
6395;BME280;3230;42.588;23.358;2023-03-14T17:39:27;90221.72;;;7.44;44.17
6395;BME280;3230;42.588;23.358;2023-03-14T17:41:52;90221.00;;;7.33;42.88
6395;BME280;3230;42.588;23.358;2023-03-14T17:44:18;90224.44;;;7.29;45.03
6395;BME280;3230;42.588;23.358;2023-03-14T17:46:43;90228.09;;;7.28;45.28
6395;BME280;3230;42.588;23.358;2023-03-14T17:49:08;90233.22;;;7.03;46.56
6395;BME280;3230;42.588;23.358;2023-03-14T17:51:34;90225.34;;;7.09;42.90
6395;BME280;3230;42.588;23.358;2023-03-14T17:53:59;90229.50;;;7.15;41.66
6395;BME280;3230;42.588;23.358;2023-03-14T17:56:25;90217.31;;;7.05;42.31
6395;BME280;3230;42.588;23.358;2023-03-14T17:58:50;90210.56;;;6.99;41.61
6395;BME280;3230;42.588;23.358;2023-03-14T18:01:18;90218.19;;;6.90;42.43
6395;BME280;3230;42.588;23.358;2023-03-14T18:03:44;90218.75;;;6.87;42.08
6395;BME280;3230;42.588;23.358;2023-03-14T18:06:11;90217.03;;;6.67;42.56
6395;BME280;3230;42.588;23.358;2023-03-14T18:08:38;90216.47;;;6.75;42.15
6395;BME280;3230;42.588;23.358;2023-03-14T18:11:06;90218.28;;;6.80;41.54
6395;BME280;3230;42.588;23.358;2023-03-14T18:13:32;90217.75;;;6.78;40.68
6395;BME280;3230;42.588;23.358;2023-03-14T18:15:58;90217.22;;;6.81;40.79
6395;BME280;3230;42.588;23.358;2023-03-14T18:18:23;90204.22;;;6.76;41.40
6395;BME280;3230;42.588;23.358;2023-03-14T18:20:50;90218.78;;;6.77;40.44
6395;BME280;3230;42.588;23.358;2023-03-14T18:23:16;90217.66;;;6.93;38.37
6395;BME280;3230;42.588;23.358;2023-03-14T18:25:42;90223.53;;;7.09;37.62
6395;BME280;3230;42.588;23.358;2023-03-14T18:28:08;90225.19;;;6.95;38.11
6395;BME280;3230;42.588;23.358;2023-03-14T18:30:33;90225.25;;;6.90;37.57
6395;BME280;3230;42.588;23.358;2023-03-14T18:32:59;90225.91;;;7.06;36.70
6395;BME280;3230;42.588;23.358;2023-03-14T18:35:25;90218.13;;;7.00;36.73
6395;BME280;3230;42.588;23.358;2023-03-14T18:37:50;90223.13;;;6.97;37.15
6395;BME280;3230;42.588;23.358;2023-03-14T18:40:16;90217.44;;;6.90;37.62
6395;BME280;3230;42.588;23.358;2023-03-14T18:42:42;90226.03;;;6.85;36.68
6395;BME280;3230;42.588;23.358;2023-03-14T18:45:08;90205.25;;;6.75;37.17
6395;BME280;3230;42.588;23.358;2023-03-14T18:47:34;90215.06;;;6.88;35.93
6395;BME280;3230;42.588;23.358;2023-03-14T18:50:02;90207.38;;;6.72;35.42
6395;BME280;3230;42.588;23.358;2023-03-14T18:52:28;90220.13;;;6.74;35.26
6395;BME280;3230;42.588;23.358;2023-03-14T18:54:54;90213.53;;;6.87;35.50
6395;BME280;3230;42.588;23.358;2023-03-14T18:57:19;90213.75;;;6.96;34.67
6395;BME280;3230;42.588;23.358;2023-03-14T18:59:46;90208.25;;;6.97;34.14
6395;BME280;3230;42.588;23.358;2023-03-14T19:02:11;90212.88;;;7.06;34.19
6395;BME280;3230;42.588;23.358;2023-03-14T19:04:36;90215.69;;;6.75;34.55
6395;BME280;3230;42.588;23.358;2023-03-14T19:07:02;90214.63;;;6.81;34.84
6395;BME280;3230;42.588;23.358;2023-03-14T19:09:27;90203.72;;;6.74;35.73
6395;BME280;3230;42.588;23.358;2023-03-14T19:11:53;90202.94;;;6.73;34.92
6395;BME280;3230;42.588;23.358;2023-03-14T19:14:18;90204.69;;;6.83;35.46
6395;BME280;3230;42.588;23.358;2023-03-14T19:16:45;90208.72;;;6.65;36.05
6395;BME280;3230;42.588;23.358;2023-03-14T19:19:10;90206.41;;;6.58;35.43
6395;BME280;3230;42.588;23.358;2023-03-14T19:21:36;90213.34;;;6.73;35.63
6395;BME280;3230;42.588;23.358;2023-03-14T19:24:02;90219.34;;;6.74;35.81
6395;BME280;3230;42.588;23.358;2023-03-14T19:26:30;90203.19;;;6.77;35.53
6395;BME280;3230;42.588;23.358;2023-03-14T19:28:57;90197.69;;;6.83;36.34
6395;BME280;3230;42.588;23.358;2023-03-14T19:31:22;90201.13;;;6.74;36.45
6395;BME280;3230;42.588;23.358;2023-03-14T19:33:48;90201.13;;;6.68;36.83
6395;BME280;3230;42.588;23.358;2023-03-14T19:36:31;90202.72;;;6.64;36.98
6395;BME280;3230;42.588;23.358;2023-03-14T19:38:58;90195.81;;;6.44;38.62
6395;BME280;3230;42.588;23.358;2023-03-14T19:41:26;90202.81;;;6.49;39.92
6395;BME280;3230;42.588;23.358;2023-03-14T19:43:52;90197.41;;;6.40;38.79
6395;BME280;3230;42.588;23.358;2023-03-14T19:46:17;90194.03;;;6.39;39.40
6395;BME280;3230;42.588;23.358;2023-03-14T19:48:43;90187.53;;;6.37;39.39
6395;BME280;3230;42.588;23.358;2023-03-14T19:51:10;90191.44;;;6.34;39.06
6395;BME280;3230;42.588;23.358;2023-03-14T19:53:36;90193.53;;;6.32;39.66
6395;BME280;3230;42.588;23.358;2023-03-14T19:56:02;90193.00;;;6.35;39.89
6395;BME280;3230;42.588;23.358;2023-03-14T19:58:27;90186.81;;;6.21;40.28
6395;BME280;3230;42.588;23.358;2023-03-14T20:00:54;90190.94;;;6.27;40.71
6395;BME280;3230;42.588;23.358;2023-03-14T20:03:20;90190.25;;;6.16;41.58
6395;BME280;3230;42.588;23.358;2023-03-14T20:05:48;90190.81;;;6.03;43.18
6395;BME280;3230;42.588;23.358;2023-03-14T20:08:13;90194.50;;;5.81;43.98
6395;BME280;3230;42.588;23.358;2023-03-14T20:10:40;90194.25;;;5.78;45.07
6395;BME280;3230;42.588;23.358;2023-03-14T20:13:05;90188.03;;;5.63;46.74
6395;BME280;3230;42.588;23.358;2023-03-14T20:15:30;90181.81;;;5.59;46.49
6395;BME280;3230;42.588;23.358;2023-03-14T20:17:56;90186.25;;;5.43;47.21
6395;BME280;3230;42.588;23.358;2023-03-14T20:20:21;90180.81;;;5.34;50.62
6395;BME280;3230;42.588;23.358;2023-03-14T20:22:47;90176.91;;;5.37;51.91
6395;BME280;3230;42.588;23.358;2023-03-14T20:25:15;90187.06;;;5.23;53.24
6395;BME280;3230;42.588;23.358;2023-03-14T20:27:43;90170.44;;;5.29;53.35
6395;BME280;3230;42.588;23.358;2023-03-14T20:30:14;90177.19;;;5.30;52.45
6395;BME280;3230;42.588;23.358;2023-03-14T20:32:41;90177.97;;;5.25;52.48
6395;BME280;3230;42.588;23.358;2023-03-14T20:35:08;90178.22;;;5.29;53.05
6395;BME280;3230;42.588;23.358;2023-03-14T20:37:35;90174.84;;;5.28;53.94
6395;BME280;3230;42.588;23.358;2023-03-14T20:40:01;90169.16;;;5.11;57.05
6395;BME280;3230;42.588;23.358;2023-03-14T20:42:29;90161.09;;;5.12;58.14
6395;BME280;3230;42.588;23.358;2023-03-14T20:44:54;90164.19;;;5.20;58.92
6395;BME280;3230;42.588;23.358;2023-03-14T20:47:19;90160.31;;;5.17;59.66
6395;BME280;3230;42.588;23.358;2023-03-14T20:49:45;90163.72;;;5.02;61.81
6395;BME280;3230;42.588;23.358;2023-03-14T20:52:11;90154.59;;;5.10;61.12
6395;BME280;3230;42.588;23.358;2023-03-14T20:54:37;90143.44;;;4.99;61.62
6395;BME280;3230;42.588;23.358;2023-03-14T20:57:03;90149.94;;;5.02;62.63
6395;BME280;3230;42.588;23.358;2023-03-14T20:59:28;90145.53;;;5.02;62.85
6395;BME280;3230;42.588;23.358;2023-03-14T21:01:54;90137.72;;;4.92;64.03
6395;BME280;3230;42.588;23.358;2023-03-14T21:04:22;90138.25;;;4.99;63.54
6395;BME280;3230;42.588;23.358;2023-03-14T21:06:50;90128.09;;;5.23;62.87
6395;BME280;3230;42.588;23.358;2023-03-14T21:09:20;90130.72;;;5.08;62.83
6395;BME280;3230;42.588;23.358;2023-03-14T21:11:46;90129.69;;;5.14;63.41
6395;BME280;3230;42.588;23.358;2023-03-14T21:14:11;90126.81;;;5.05;62.76
6395;BME280;3230;42.588;23.358;2023-03-14T21:16:37;90126.06;;;5.05;61.98
6395;BME280;3230;42.588;23.358;2023-03-14T21:19:02;90113.31;;;5.13;65.00
6395;BME280;3230;42.588;23.358;2023-03-14T21:21:27;90126.81;;;5.16;65.25
6395;BME280;3230;42.588;23.358;2023-03-14T21:23:53;90125.78;;;5.11;66.60
6395;BME280;3230;42.588;23.358;2023-03-14T21:26:20;90125.28;;;4.94;67.51
6395;BME280;3230;42.588;23.358;2023-03-14T21:28:45;90126.31;;;4.93;67.81
6395;BME280;3230;42.588;23.358;2023-03-14T21:31:11;90123.47;;;4.79;68.62
6395;BME280;3230;42.588;23.358;2023-03-14T21:33:37;90119.84;;;4.75;68.71
6395;BME280;3230;42.588;23.358;2023-03-14T21:36:03;90121.16;;;4.57;68.90
6395;BME280;3230;42.588;23.358;2023-03-14T21:38:29;90119.59;;;4.51;69.50
6395;BME280;3230;42.588;23.358;2023-03-14T21:40:55;90117.53;;;4.63;69.34
6395;BME280;3230;42.588;23.358;2023-03-14T21:43:22;90112.56;;;4.61;69.11
6395;BME280;3230;42.588;23.358;2023-03-14T21:45:48;90113.59;;;4.55;69.70
6395;BME280;3230;42.588;23.358;2023-03-14T21:48:14;90123.75;;;4.67;67.32
6395;BME280;3230;42.588;23.358;2023-03-14T21:50:40;90134.06;;;4.31;70.83
6395;BME280;3230;42.588;23.358;2023-03-14T21:53:05;90119.03;;;4.23;72.13
6395;BME280;3230;42.588;23.358;2023-03-14T21:55:30;90115.13;;;4.15;72.19
6395;BME280;3230;42.588;23.358;2023-03-14T21:57:56;90133.47;;;3.88;75.07
6395;BME280;3230;42.588;23.358;2023-03-14T22:00:23;90127.00;;;3.85;76.20
6395;BME280;3230;42.588;23.358;2023-03-14T22:02:50;90125.16;;;3.80;76.75
6395;BME280;3230;42.588;23.358;2023-03-14T22:05:20;90121.78;;;3.80;77.17
6395;BME280;3230;42.588;23.358;2023-03-14T22:07:46;90119.44;;;3.73;77.09
6395;BME280;3230;42.588;23.358;2023-03-14T22:10:12;90118.13;;;3.65;75.70
6395;BME280;3230;42.588;23.358;2023-03-14T22:12:38;90116.31;;;3.66;75.65
6395;BME280;3230;42.588;23.358;2023-03-14T22:15:05;90104.31;;;3.49;78.70
6395;BME280;3230;42.588;23.358;2023-03-14T22:17:31;90110.03;;;3.51;79.04
6395;BME280;3230;42.588;23.358;2023-03-14T22:19:57;90104.03;;;3.46;78.46
6395;BME280;3230;42.588;23.358;2023-03-14T22:22:22;90097.63;;;3.59;76.79